Time;durP1;ratioP1;P1;durP2;ratioP2;P2;SDS_P1;SDS_P2;PMS_P1;PMS_P2;Temp;Humidity;BMP_temperature;BMP_pressure;BME280_temperature;BME280_humidity;BME280_pressure;Samples;Min_cycle;Max_cycle;Signal;HPM_P1;HPM_P2
2022/11/19 00:00:45;;;;;;;6.27;4.37;;;9.00;95.40;;;;;;5036490;28;20116;-71
2022/11/19 00:03:12;;;;;;;8.13;4.53;;;8.90;95.40;;;;;;5035866;28;20112;-71
2022/11/19 00:05:39;;;;;;;5.47;4.23;;;8.90;95.30;;;;;;5036345;28;20116;-70
2022/11/19 00:08:06;;;;;;;7.07;4.47;;;8.90;95.40;;;;;;5036084;28;20037;-70
2022/11/19 00:10:34;;;;;;;5.67;4.33;;;8.90;95.50;;;;;;5036277;28;20049;-70
2022/11/19 00:12:59;;;;;;;6.50;4.33;;;8.90;95.80;;;;;;5035936;28;20042;-70
2022/11/19 00:15:25;;;;;;;8.03;4.20;;;8.90;95.90;;;;;;5035821;28;20430;-69
2022/11/19 00:17:51;;;;;;;7.33;4.43;;;8.90;96.20;;;;;;5035802;28;20033;-70
2022/11/19 00:20:16;;;;;;;8.03;4.10;;;8.90;96.20;;;;;;5035988;28;20044;-70
2022/11/19 00:22:43;;;;;;;6.97;4.67;;;8.90;96.20;;;;;;5036092;28;20527;-72
2022/11/19 00:25:10;;;;;;;6.63;4.40;;;9.00;96.10;;;;;;5036084;28;20047;-70
2022/11/19 00:27:36;;;;;;;6.43;4.20;;;9.00;96.10;;;;;;5035358;28;20033;-70
2022/11/19 00:30:03;;;;;;;6.43;4.33;;;9.00;96.00;;;;;;5035804;28;20450;-70
2022/11/19 00:32:30;;;;;;;10.60;4.87;;;9.00;95.70;;;;;;5035804;28;20037;-70
2022/11/19 00:34:56;;;;;;;9.43;5.20;;;8.90;95.40;;;;;;5035880;28;20030;-70
2022/11/19 00:37:22;;;;;;;10.00;5.27;;;8.90;95.20;;;;;;5035449;28;20037;-70
2022/11/19 00:39:47;;;;;;;7.93;5.30;;;8.90;95.40;;;;;;5035773;28;20059;-71
2022/11/19 00:42:13;;;;;;;9.57;5.13;;;8.90;95.30;;;;;;5035643;28;20041;-70
2022/11/19 00:44:39;;;;;;;7.97;5.73;;;8.80;95.10;;;;;;5035570;28;20038;-70
2022/11/19 00:47:05;;;;;;;10.27;5.43;;;8.80;95.10;;;;;;5035329;28;20488;-70
2022/11/19 00:49:30;;;;;;;11.30;5.90;;;8.80;95.00;;;;;;5035111;28;20080;-70
2022/11/19 00:51:56;;;;;;;8.37;5.63;;;8.70;94.90;;;;;;5035021;28;20036;-73
2022/11/19 00:54:22;;;;;;;11.73;6.67;;;8.70;94.90;;;;;;5034169;28;20510;-71
2022/11/19 00:56:48;;;;;;;8.80;6.40;;;8.70;94.90;;;;;;5035319;28;20083;-71
2022/11/19 00:59:13;;;;;;;8.47;6.40;;;8.60;94.90;;;;;;5035375;28;20065;-71
2022/11/19 01:01:39;;;;;;;11.70;6.53;;;8.60;94.90;;;;;;5034862;28;20096;-70
2022/11/19 01:04:05;;;;;;;8.13;5.73;;;8.60;94.90;;;;;;5035109;28;20046;-70
2022/11/19 01:06:31;;;;;;;7.67;5.80;;;8.60;95.00;;;;;;5034932;28;20033;-70
2022/11/19 01:08:57;;;;;;;7.70;5.17;;;8.60;94.90;;;;;;5035203;28;20388;-71
2022/11/19 01:11:29;;;;;;;8.93;6.00;;;8.50;94.80;;;;;;5034935;28;20034;-71
2022/11/19 01:13:55;;;;;;;7.97;5.00;;;8.50;95.10;;;;;;5034815;28;20038;-70
2022/11/19 01:16:35;;;;;;;9.73;5.57;;;8.50;95.00;;;;;;5034806;28;20037;-71
2022/11/19 01:19:02;;;;;;;9.33;5.47;;;8.50;95.10;;;;;;5034929;28;20036;-71
2022/11/19 01:21:31;;;;;;;8.33;4.80;;;8.50;95.00;;;;;;5034778;28;20030;-70
2022/11/19 01:23:57;;;;;;;8.37;4.83;;;8.50;95.20;;;;;;5034592;28;20044;-70
2022/11/19 01:26:24;;;;;;;8.60;4.40;;;8.50;95.20;;;;;;5034900;28;20034;-70
2022/11/19 01:28:49;;;;;;;9.60;5.43;;;8.50;95.30;;;;;;5034518;28;20495;-70
2022/11/19 01:31:18;;;;;;;6.40;5.00;;;8.50;95.30;;;;;;5034569;28;20048;-72
2022/11/19 01:33:44;;;;;;;9.27;4.87;;;8.40;95.40;;;;;;5034626;28;20021;-70
2022/11/19 01:36:16;;;;;;;11.13;5.30;;;8.40;95.50;;;;;;5034490;28;20084;-71
2022/11/19 01:38:42;;;;;;;7.47;4.57;;;8.50;95.70;;;;;;5034586;28;20034;-70
2022/11/19 01:41:08;;;;;;;9.20;4.63;;;8.50;95.80;;;;;;5034225;28;20041;-70
2022/11/19 01:43:45;;;;;;;7.33;5.37;;;8.50;95.70;;;;;;5034152;28;20038;-71
2022/11/19 01:46:14;;;;;;;6.83;4.70;;;8.50;95.70;;;;;;5033902;28;20041;-70
2022/11/19 01:48:48;;;;;;;6.00;4.53;;;8.50;95.70;;;;;;5033871;28;20030;-70
2022/11/19 01:51:20;;;;;;;7.83;4.90;;;8.50;95.80;;;;;;5034208;28;20495;-70
2022/11/19 01:53:48;;;;;;;4.65;4.10;;;8.50;95.80;;;;;;5034281;28;20480;-70
2022/11/19 01:56:18;;;;;;;8.90;4.40;;;8.50;96.00;;;;;;5033987;28;20041;-77
2022/11/19 01:58:48;;;;;;;6.57;4.20;;;8.50;96.30;;;;;;5031751;28;20095;-71
2022/11/19 02:01:15;;;;;;;6.43;5.17;;;8.60;96.30;;;;;;5031230;28;20026;-71
2022/11/19 02:03:41;;;;;;;8.43;4.33;;;8.60;96.20;;;;;;5031193;28;20053;-71
2022/11/19 02:06:07;;;;;;;6.37;4.27;;;8.60;96.00;;;;;;5033265;28;20029;-70
2022/11/19 02:08:36;;;;;;;13.20;4.37;;;8.50;95.90;;;;;;5032455;28;20407;-71
2022/11/19 02:11:36;;;;;;;7.23;4.27;;;8.50;95.90;;;;;;5033735;28;20053;-70
2022/11/19 02:14:12;;;;;;;7.63;4.00;;;8.50;96.00;;;;;;5033623;28;20051;-71
2022/11/19 02:16:47;;;;;;;7.43;3.83;;;8.60;96.20;;;;;;5033627;28;20040;-70
2022/11/19 02:19:43;;;;;;;4.80;3.67;;;8.60;96.40;;;;;;5033630;28;20036;-71
2022/11/19 02:22:29;;;;;;;5.20;3.50;;;8.60;96.70;;;;;;5033659;28;20030;-70
2022/11/19 02:25:29;;;;;;;4.60;3.87;;;8.60;96.80;;;;;;5033578;28;20053;-71
2022/11/19 02:28:18;;;;;;;8.00;3.90;;;8.60;97.10;;;;;;5025067;28;20034;-70
2022/11/19 02:31:13;;;;;;;7.13;3.83;;;8.70;97.20;;;;;;5030299;28;20570;-72
2022/11/19 02:33:53;;;;;;;6.13;3.80;;;8.70;97.10;;;;;;5033458;28;20068;-70
2022/11/19 02:36:27;;;;;;;5.63;4.03;;;8.70;97.10;;;;;;5032918;28;20533;-70
2022/11/19 02:38:56;;;;;;;5.83;4.00;;;8.80;97.00;;;;;;5033089;28;20033;-70
2022/11/19 02:41:32;;;;;;;6.87;4.40;;;8.70;96.80;;;;;;5033135;28;20032;-70
2022/11/19 02:46:52;;;;;;;5.43;3.83;;;8.70;96.00;;;;;;5033262;28;20533;-70
2022/11/19 02:49:21;;;;;;;6.63;4.30;;;8.70;95.60;;;;;;5032987;28;20145;-70
2022/11/19 02:51:48;;;;;;;5.87;4.37;;;8.60;95.40;;;;;;5033153;28;20045;-70
2022/11/19 02:54:16;;;;;;;6.60;4.60;;;8.50;95.10;;;;;;5033233;28;20120;-70
2022/11/19 02:56:54;;;;;;;6.10;4.53;;;8.50;95.10;;;;;;5033034;28;20384;-74
2022/11/19 03:05:04;;;;;;;5.70;4.50;;;8.30;95.00;;;;;;5033119;28;20088;-70
2022/11/19 03:07:30;;;;;;;7.80;4.50;;;8.30;95.10;;;;;;5033088;28;20032;-70
2022/11/19 03:09:59;;;;;;;6.73;4.80;;;8.30;95.10;;;;;;5032846;28;20041;-70
2022/11/19 03:12:38;;;;;;;6.17;4.27;;;8.20;95.10;;;;;;5032481;28;20036;-70
2022/11/19 03:18:22;;;;;;;5.73;4.53;;;8.20;95.20;;;;;;5032299;28;20075;-70
2022/11/19 03:21:14;;;;;;;6.87;4.30;;;8.20;95.20;;;;;;5033042;28;20072;-70
2022/11/19 03:23:46;;;;;;;7.25;4.82;;;8.20;95.30;;;;;;5032818;28;20033;-70
2022/11/19 03:26:28;;;;;;;6.50;4.28;;;8.20;95.30;;;;;;5032782;28;20077;-70
2022/11/19 03:28:57;;;;;;;6.07;4.50;;;8.10;95.30;;;;;;5032386;28;20117;-69
2022/11/19 03:31:27;;;;;;;7.67;4.73;;;8.10;95.30;;;;;;5033003;28;20045;-70
2022/11/19 03:33:57;;;;;;;7.37;4.63;;;8.10;95.50;;;;;;5032731;28;20061;-69
2022/11/19 03:36:28;;;;;;;5.63;4.23;;;8.10;95.60;;;;;;5032666;28;20030;-71
2022/11/19 03:38:59;;;;;;;8.97;4.17;;;8.10;95.50;;;;;;5032720;28;20039;-69
2022/11/19 03:41:27;;;;;;;5.67;4.10;;;8.10;95.40;;;;;;5032531;28;20523;-71
2022/11/19 03:44:00;;;;;;;5.83;3.83;;;8.10;95.40;;;;;;5032827;28;20423;-70
2022/11/19 03:46:30;;;;;;;6.97;4.47;;;8.10;95.40;;;;;;5032787;28;20549;-70
2022/11/19 03:48:57;;;;;;;6.03;3.93;;;8.10;95.50;;;;;;5033053;28;20033;-70
2022/11/19 03:51:34;;;;;;;4.97;3.57;;;8.10;95.80;;;;;;5032293;28;20042;-70
2022/11/19 03:54:00;;;;;;;6.97;4.03;;;8.10;96.20;;;;;;5032523;28;20109;-70
2022/11/19 03:56:27;;;;;;;8.27;3.20;;;8.10;96.30;;;;;;5032460;28;20112;-69
2022/11/19 03:58:53;;;;;;;8.17;4.13;;;8.20;96.50;;;;;;5032454;28;20030;-70
2022/11/19 04:01:19;;;;;;;4.90;3.37;;;8.20;96.80;;;;;;5032547;28;20402;-70
2022/11/19 04:04:34;;;;;;;10.07;3.97;;;8.20;96.80;;;;;;5032314;28;20384;-71
2022/11/19 04:06:30;;;;;;;5.80;4.00;;;8.30;96.80;;;;;;5032290;28;20108;-72
2022/11/19 04:08:56;;;;;;;5.83;3.80;;;8.30;96.40;;;;;;5032895;28;20511;-70
2022/11/19 04:11:22;;;;;;;12.23;3.97;;;8.30;95.90;;;;;;5032163;28;20442;-69
2022/11/19 04:13:47;;;;;;;6.10;3.57;;;8.30;95.70;;;;;;5032330;28;20117;-70
2022/11/19 04:16:13;;;;;;;5.30;3.90;;;8.20;95.30;;;;;;5032296;28;20033;-70
2022/11/19 04:18:39;;;;;;;8.30;3.80;;;8.20;95.30;;;;;;5032353;28;20038;-69
2022/11/19 04:21:05;;;;;;;4.93;3.73;;;8.20;95.20;;;;;;5032720;28;20455;-71
2022/11/19 04:23:30;;;;;;;6.97;3.93;;;8.10;95.20;;;;;;5032578;28;20434;-70
2022/11/19 04:25:56;;;;;;;5.20;3.90;;;8.10;95.20;;;;;;5032238;28;20064;-71
2022/11/19 04:28:22;;;;;;;7.90;3.60;;;8.10;95.20;;;;;;5032511;28;20057;-70
2022/11/19 04:30:47;;;;;;;8.97;4.60;;;8.00;95.20;;;;;;5035735;28;20045;-70
2022/11/19 04:33:13;;;;;;;5.80;3.80;;;8.00;95.30;;;;;;5036022;28;20177;-70
2022/11/19 04:35:39;;;;;;;8.33;3.90;;;7.90;95.30;;;;;;5035704;28;20041;-70
2022/11/19 04:38:04;;;;;;;6.53;3.97;;;7.90;95.30;;;;;;5035491;28;20029;-70
2022/11/19 04:40:30;;;;;;;5.30;3.90;;;7.90;95.30;;;;;;5035647;28;20423;-70
2022/11/19 04:42:56;;;;;;;6.40;4.03;;;7.90;95.40;;;;;;5035301;28;20072;-70
2022/11/19 04:45:21;;;;;;;6.43;4.10;;;7.90;95.40;;;;;;5035591;28;20103;-70
2022/11/19 04:47:47;;;;;;;6.63;3.60;;;7.90;95.40;;;;;;5035348;28;20496;-70
2022/11/19 04:50:13;;;;;;;5.17;3.70;;;7.90;95.40;;;;;;5035400;28;20450;-71
2022/11/19 04:52:38;;;;;;;4.17;2.93;;;7.90;95.40;;;;;;5035585;28;20116;-70
2022/11/19 04:55:04;;;;;;;6.10;3.37;;;7.90;95.40;;;;;;5035290;28;20038;-70
2022/11/19 04:57:30;;;;;;;5.00;2.87;;;7.80;95.30;;;;;;5035476;28;20037;-71
2022/11/19 04:59:56;;;;;;;4.67;3.17;;;7.90;95.40;;;;;;5034787;28;20053;-70
2022/11/19 05:02:21;;;;;;;4.60;2.80;;;7.80;95.40;;;;;;5035067;28;20080;-69
2022/11/19 05:04:47;;;;;;;4.57;2.83;;;7.80;95.40;;;;;;5035237;28;20467;-70
2022/11/19 05:07:12;;;;;;;5.20;3.00;;;7.80;95.50;;;;;;5034899;28;20380;-71
2022/11/19 05:09:38;;;;;;;6.87;3.43;;;7.80;95.60;;;;;;5035107;28;20076;-70
2022/11/19 05:12:04;;;;;;;6.30;3.73;;;7.80;95.80;;;;;;5035282;28;20038;-71
2022/11/19 05:14:30;;;;;;;5.03;2.80;;;7.80;95.90;;;;;;5035057;28;20507;-71
2022/11/19 05:16:55;;;;;;;6.20;3.20;;;7.80;95.80;;;;;;5034891;28;20049;-70
2022/11/19 05:19:21;;;;;;;5.33;3.10;;;7.80;95.70;;;;;;5034739;28;20037;-70
2022/11/19 05:21:47;;;;;;;4.70;3.20;;;7.80;95.60;;;;;;5034711;28;20042;-70
2022/11/19 05:24:12;;;;;;;8.33;2.97;;;7.80;95.50;;;;;;5034658;28;20064;-75
2022/11/19 05:26:38;;;;;;;5.20;2.97;;;7.80;95.50;;;;;;5034883;28;20045;-71
2022/11/19 05:29:04;;;;;;;5.33;3.57;;;7.80;95.50;;;;;;5034521;28;20492;-71
2022/11/19 05:31:29;;;;;;;5.33;3.73;;;7.70;95.60;;;;;;5034518;28;20480;-70
2022/11/19 05:33:55;;;;;;;6.97;4.07;;;7.70;95.40;;;;;;5034794;28;20037;-71
2022/11/19 05:36:21;;;;;;;11.67;4.17;;;7.70;95.40;;;;;;5034695;28;20422;-70
2022/11/19 05:38:46;;;;;;;6.70;3.87;;;7.60;95.40;;;;;;5034785;28;20033;-70
2022/11/19 05:41:12;;;;;;;9.67;4.17;;;7.60;95.40;;;;;;5034285;28;20044;-71
2022/11/19 05:43:38;;;;;;;6.60;4.17;;;7.60;95.50;;;;;;5034067;28;20108;-70
2022/11/19 05:46:03;;;;;;;6.93;3.87;;;7.60;95.70;;;;;;5034654;28;20069;-71
2022/11/19 05:48:29;;;;;;;5.03;4.23;;;7.60;95.70;;;;;;5034618;28;20041;-70
2022/11/19 05:50:55;;;;;;;5.60;4.27;;;7.60;95.80;;;;;;5034353;28;20054;-71
2022/11/19 05:53:20;;;;;;;6.23;4.47;;;7.60;95.70;;;;;;5034253;28;20399;-71
2022/11/19 05:55:46;;;;;;;12.27;4.93;;;7.60;95.80;;;;;;5034112;28;20495;-70
2022/11/19 05:58:12;;;;;;;8.17;4.80;;;7.60;95.80;;;;;;5034253;28;20112;-70
2022/11/19 06:00:38;;;;;;;7.37;5.13;;;7.60;95.80;;;;;;5034265;28;20083;-71
2022/11/19 06:03:04;;;;;;;10.63;4.93;;;7.50;95.80;;;;;;5034105;28;20446;-71
2022/11/19 06:05:30;;;;;;;7.90;4.43;;;7.60;95.90;;;;;;5033854;28;20113;-71
2022/11/19 06:07:56;;;;;;;9.93;5.00;;;7.50;95.90;;;;;;5034224;28;20040;-71
2022/11/19 06:10:21;;;;;;;12.43;6.37;;;7.50;95.90;;;;;;5033735;28;20403;-71
2022/11/19 06:12:47;;;;;;;8.60;5.10;;;7.60;95.90;;;;;;5033733;28;20116;-70
2022/11/19 06:15:13;;;;;;;8.90;5.17;;;7.60;95.90;;;;;;5033748;28;20068;-70
2022/11/19 06:17:39;;;;;;;8.20;5.17;;;7.50;95.80;;;;;;5033718;28;20036;-70
2022/11/19 06:20:09;;;;;;;7.23;4.80;;;7.50;95.70;;;;;;5033832;28;20041;-71
2022/11/19 06:22:36;;;;;;;8.37;4.57;;;7.50;95.70;;;;;;5033925;28;20384;-71
2022/11/19 06:25:03;;;;;;;9.67;5.00;;;7.50;95.60;;;;;;5033694;28;20038;-74
2022/11/19 06:27:29;;;;;;;8.33;5.13;;;7.50;95.70;;;;;;5034163;28;20026;-71
2022/11/19 06:29:55;;;;;;;10.83;5.20;;;7.50;95.80;;;;;;5033708;28;20438;-71
2022/11/19 06:32:20;;;;;;;9.57;5.07;;;7.50;95.90;;;;;;5033756;28;20029;-70
2022/11/19 06:34:46;;;;;;;12.10;5.27;;;7.50;96.00;;;;;;5033440;28;20459;-70
2022/11/19 06:37:12;;;;;;;9.93;5.43;;;7.50;96.10;;;;;;5033362;28;20040;-70
2022/11/19 06:39:37;;;;;;;9.40;5.20;;;7.50;96.10;;;;;;5033339;28;20069;-71
2022/11/19 06:44:47;;;;;;;12.73;6.00;;;7.50;96.20;;;;;;5033400;28;20037;-70
2022/11/19 06:47:13;;;;;;;12.10;6.00;;;7.50;96.30;;;;;;5033127;28;20025;-70
2022/11/19 06:49:38;;;;;;;9.30;5.33;;;7.50;96.30;;;;;;5033319;28;20069;-70
2022/11/19 06:52:04;;;;;;;13.30;5.80;;;7.50;96.30;;;;;;5032411;28;20582;-71
2022/11/19 06:54:30;;;;;;;7.30;4.70;;;7.50;96.40;;;;;;5033037;28;20033;-72
2022/11/19 06:56:55;;;;;;;7.57;5.03;;;7.50;96.60;;;;;;5033358;28;20361;-71
2022/11/19 06:59:21;;;;;;;10.80;5.70;;;7.50;96.60;;;;;;5033330;28;20084;-71
2022/11/19 07:01:46;;;;;;;11.57;5.43;;;7.50;96.70;;;;;;5033100;28;20472;-72
2022/11/19 07:04:12;;;;;;;7.47;5.10;;;7.60;96.80;;;;;;5032808;28;20452;-71
2022/11/19 07:06:38;;;;;;;8.60;5.17;;;7.60;96.60;;;;;;5033125;28;20095;-71
2022/11/19 07:09:03;;;;;;;10.80;5.43;;;7.60;96.50;;;;;;5033668;28;20484;-71
2022/11/19 07:11:29;;;;;;;9.93;5.90;;;7.60;96.40;;;;;;5032893;28;20412;-71
2022/11/19 07:13:56;;;;;;;12.03;6.13;;;7.60;96.50;;;;;;5032763;28;20456;-70
2022/11/19 07:16:30;;;;;;;16.77;7.17;;;7.70;96.50;;;;;;5032697;28;20068;-70
2022/11/19 07:18:58;;;;;;;15.50;7.43;;;7.70;96.50;;;;;;5032862;28;20037;-71
2022/11/19 07:21:24;;;;;;;14.73;7.53;;;7.70;96.60;;;;;;5033090;28;20038;-71
2022/11/19 07:23:51;;;;;;;19.57;8.50;;;7.70;96.60;;;;;;5051995;28;20052;-71
2022/11/19 07:26:17;;;;;;;19.87;8.37;;;7.60;96.60;;;;;;5052765;28;20049;-70
2022/11/19 07:28:42;;;;;;;32.23;9.53;;;7.60;96.70;;;;;;5052720;28;20445;-71
2022/11/19 07:31:08;;;;;;;30.17;8.93;;;7.70;96.70;;;;;;5052700;28;20045;-70
2022/11/19 07:33:35;;;;;;;49.73;11.43;;;7.70;96.80;;;;;;5047892;28;20034;-71
2022/11/19 07:36:01;;;;;;;65.53;15.37;;;7.70;96.70;;;;;;5032421;28;20095;-71
2022/11/19 07:38:27;;;;;;;77.67;15.50;;;7.70;96.80;;;;;;5032427;28;20541;-71
2022/11/19 07:40:54;;;;;;;55.07;12.80;;;7.70;96.80;;;;;;5032435;28;20030;-71
2022/11/19 07:43:20;;;;;;;39.20;10.17;;;7.70;96.90;;;;;;5032177;28;20033;-71
2022/11/19 07:45:47;;;;;;;64.77;12.67;;;7.70;96.90;;;;;;5032259;28;20056;-71
2022/11/19 07:48:13;;;;;;;49.10;13.50;;;7.70;96.80;;;;;;5032003;28;20073;-70
2022/11/19 07:50:39;;;;;;;35.67;11.73;;;7.80;96.80;;;;;;5031577;28;20406;-71
2022/11/19 07:53:06;;;;;;;43.23;11.23;;;7.70;96.80;;;;;;5031823;28;20403;-71
2022/11/19 07:55:32;;;;;;;28.47;9.47;;;7.80;96.90;;;;;;5032005;28;20037;-72
2022/11/19 07:57:57;;;;;;;27.80;8.63;;;7.70;96.90;;;;;;5032247;28;20040;-71
2022/11/19 08:00:23;;;;;;;20.23;8.33;;;7.80;97.00;;;;;;5032247;28;20041;-71
2022/11/19 08:02:49;;;;;;;19.83;8.23;;;7.80;97.10;;;;;;5033779;28;20049;-71
2022/11/19 08:05:15;;;;;;;21.63;8.17;;;7.80;97.10;;;;;;5036195;28;20487;-72
2022/11/19 08:07:41;;;;;;;14.80;7.07;;;7.90;97.20;;;;;;5036269;28;20033;-71
2022/11/19 08:10:08;;;;;;;13.73;6.73;;;7.90;97.20;;;;;;5036248;28;20103;-71
2022/11/19 08:12:33;;;;;;;10.10;5.77;;;8.00;97.30;;;;;;5035975;28;20036;-71
2022/11/19 08:14:59;;;;;;;12.00;6.07;;;8.00;97.40;;;;;;5036192;28;20041;-71
2022/11/19 08:20:09;;;;;;;19.33;8.47;;;8.20;97.30;;;;;;5036010;28;20111;-71
2022/11/19 08:22:35;;;;;;;18.17;8.43;;;8.30;97.30;;;;;;5040313;28;20491;-71
2022/11/19 08:25:02;;;;;;;15.03;7.37;;;8.30;97.40;;;;;;5055760;28;20120;-71
2022/11/19 08:27:28;;;;;;;26.77;8.53;;;8.40;97.50;;;;;;5055583;28;20025;-72
2022/11/19 08:29:54;;;;;;;31.27;10.90;;;8.40;97.40;;;;;;5055638;28;20067;-71
2022/11/19 08:32:20;;;;;;;30.50;11.47;;;8.50;97.40;;;;;;5055619;28;20029;-73
2022/11/19 08:34:45;;;;;;;20.80;10.47;;;8.50;97.30;;;;;;5055564;28;20395;-71
2022/11/19 08:37:12;;;;;;;20.00;8.13;;;8.50;97.40;;;;;;5055103;28;20383;-72
2022/11/19 08:39:41;;;;;;;12.77;7.83;;;8.60;97.40;;;;;;5054498;28;20437;-72
2022/11/19 08:44:54;;;;;;;16.73;8.03;;;8.70;97.40;;;;;;5055559;28;20584;-71
2022/11/19 08:47:20;;;;;;;12.03;6.80;;;8.80;97.50;;;;;;5055261;28;20040;-71
2022/11/19 08:49:45;;;;;;;15.03;6.67;;;8.80;97.40;;;;;;5055084;28;20483;-71
2022/11/19 08:52:13;;;;;;;8.83;5.90;;;8.90;97.30;;;;;;5055405;28;20036;-71
2022/11/19 08:54:38;;;;;;;10.50;6.47;;;8.90;97.40;;;;;;5055604;28;20037;-71
2022/11/19 08:57:04;;;;;;;9.20;5.47;;;9.00;97.50;;;;;;5055324;28;20083;-71
2022/11/19 08:59:29;;;;;;;8.13;4.87;;;9.00;97.60;;;;;;5055189;28;20044;-73
2022/11/19 09:01:55;;;;;;;5.17;3.67;;;9.10;97.60;;;;;;5054893;28;20036;-71
2022/11/19 09:04:21;;;;;;;15.17;4.10;;;9.20;97.60;;;;;;5055012;28;20052;-70
2022/11/19 09:06:46;;;;;;;7.23;3.50;;;9.30;97.70;;;;;;5054699;28;20029;-70
2022/11/19 09:09:12;;;;;;;11.17;2.70;;;9.40;97.70;;;;;;5054890;28;20033;-71
2022/11/19 09:11:38;;;;;;;4.37;2.20;;;9.60;97.60;;;;;;5054979;28;20095;-70
2022/11/19 09:14:03;;;;;;;5.50;1.70;;;9.60;97.40;;;;;;5054148;28;20112;-73
2022/11/19 09:16:29;;;;;;;2.90;1.40;;;9.80;97.20;;;;;;5054851;28;20041;-70
2022/11/19 09:18:55;;;;;;;3.45;1.67;;;9.90;96.80;;;;;;5054698;28;20442;-70
2022/11/19 09:21:20;;;;;;;2.77;1.80;;;10.00;96.70;;;;;;5054929;28;20052;-71
2022/11/19 09:23:46;;;;;;;3.50;1.60;;;10.00;96.40;;;;;;5054973;28;20044;-78
2022/11/19 09:26:14;;;;;;;3.23;1.83;;;10.10;96.30;;;;;;5054708;28;20078;-73
2022/11/19 09:28:41;;;;;;;4.20;1.50;;;10.20;96.20;;;;;;5054739;28;20037;-75
2022/11/19 09:31:15;;;;;;;2.35;1.58;;;10.20;96.00;;;;;;5054880;28;20419;-74
2022/11/19 09:33:44;;;;;;;2.13;1.42;;;10.30;96.70;;;;;;5054774;28;20060;-78
2022/11/19 09:36:11;;;;;;;4.60;1.80;;;10.50;99.90;;;;;;5054488;28;20094;-75
2022/11/19 09:38:39;;;;;;;1.52;1.30;;;;;;;;;;5054567;28;20110;-79
2022/11/19 09:41:16;;;;;;;30.33;2.85;;;10.60;99.90;;;;;;5054394;28;20191;-77
2022/11/19 09:44:17;;;;;;;5.65;1.60;;;10.60;99.90;;;;;;5054309;28;20033;-71
2022/11/19 09:47:01;;;;;;;2.70;1.50;;;10.70;99.70;;;;;;4992977;28;20038;-77
2022/11/19 09:49:33;;;;;;;4.10;2.20;;;10.70;99.90;;;;;;5048912;28;20041;-71
2022/11/19 09:52:04;;;;;;;5.43;2.58;;;10.80;99.90;;;;;;5054341;28;20090;-70
2022/11/19 09:54:31;;;;;;;8.77;2.60;;;10.70;99.90;;;;;;5054402;28;20068;-70
2022/11/19 09:57:01;;;;;;;4.88;2.75;;;10.80;99.90;;;;;;5054232;28;20063;-70
2022/11/19 09:59:35;;;;;;;3.60;2.17;;;10.80;99.90;;;;;;5054125;28;20112;-71
2022/11/19 10:02:11;;;;;;;2.83;1.80;;;10.80;99.90;;;;;;5053738;28;20479;-70
2022/11/19 10:04:37;;;;;;;3.83;1.42;;;10.80;99.90;;;;;;5054000;28;20430;-68
2022/11/19 10:07:27;;;;;;;11.57;7.43;;;10.80;99.90;;;;;;5046504;28;20033;-70
2022/11/19 10:10:11;;;;;;;28.40;18.23;;;10.80;99.90;;;;;;5033553;28;20037;-67
2022/11/19 10:12:51;;;;;;;22.55;15.05;;;10.90;99.90;;;;;;5033829;28;20030;-69
2022/11/19 10:15:25;;;;;;;11.60;9.70;;;10.90;99.90;;;;;;5033910;28;20428;-70
2022/11/19 10:18:11;;;;;;;6.75;4.90;;;10.90;99.90;;;;;;5033869;28;20089;-70
2022/11/19 10:21:00;;;;;;;5.88;2.67;;;;;;;;;;5033905;28;20060;-70
2022/11/19 10:23:49;;;;;;;3.97;2.50;;;11.20;99.90;;;;;;5033393;28;20061;-70
2022/11/19 10:26:18;;;;;;;9.82;2.53;;;10.90;95.70;;;;;;5033268;28;20468;-70
2022/11/19 10:28:55;;;;;;;6.30;2.33;;;10.90;95.60;;;;;;5033768;28;20116;-71
2022/11/19 10:31:37;;;;;;;2.35;1.90;;;11.00;95.60;;;;;;5033527;28;20454;-70
2022/11/19 10:34:25;;;;;;;2.80;1.20;;;11.00;95.60;;;;;;5033698;28;20092;-70
2022/11/19 10:36:57;;;;;;;2.80;1.40;;;11.00;95.20;;;;;;5026834;28;20033;-70
2022/11/19 10:39:32;;;;;;;2.22;1.50;;;11.00;94.80;;;;;;5033532;28;20083;-70
2022/11/19 10:42:19;;;;;;;2.28;1.60;;;11.00;94.60;;;;;;5033598;28;20048;-70
2022/11/19 10:45:15;;;;;;;5.00;1.73;;;11.10;94.50;;;;;;5033362;28;20034;-69
2022/11/19 10:47:59;;;;;;;5.05;1.75;;;11.10;94.50;;;;;;5033420;28;20535;-71
2022/11/19 10:50:25;;;;;;;3.97;1.88;;;11.10;94.40;;;;;;5033379;28;20081;-70
2022/11/19 10:53:19;;;;;;;3.58;1.52;;;11.10;94.40;;;;;;5033395;28;20061;-69
2022/11/19 10:55:56;;;;;;;2.92;1.73;;;11.10;94.40;;;;;;5027723;28;20044;-70
2022/11/19 10:58:38;;;;;;;1.83;1.20;;;11.10;94.40;;;;;;5032978;28;20040;-70
2022/11/19 11:01:31;;;;;;;2.60;1.25;;;11.20;94.30;;;;;;5033211;28;20523;-69
2022/11/19 11:04:09;;;;;;;2.75;1.33;;;11.20;94.00;;;;;;5033198;28;20139;-69
2022/11/19 11:07:03;;;;;;;2.28;1.35;;;11.30;93.70;;;;;;5033000;28;20128;-71
2022/11/19 11:09:38;;;;;;;3.03;1.95;;;11.30;93.60;;;;;;5031699;28;20064;-69
2022/11/19 11:15:22;;;;;;;2.85;1.80;;;11.30;93.60;;;;;;5030555;28;20099;-70
2022/11/19 11:18:03;;;;;;;3.90;2.05;;;11.30;93.50;;;;;;5030759;28;20443;-69
2022/11/19 11:20:30;;;;;;;5.40;1.60;;;11.30;93.60;;;;;;5033017;28;20034;-69
2022/11/19 11:23:09;;;;;;;1.95;1.50;;;11.30;93.70;;;;;;5032964;28;20033;-71
2022/11/19 11:25:37;;;;;;;3.03;1.42;;;11.30;93.60;;;;;;5032887;28;20026;-72
2022/11/19 11:28:18;;;;;;;2.25;1.40;;;11.40;93.60;;;;;;5032896;28;20044;-69
2022/11/19 11:30:54;;;;;;;2.63;1.50;;;11.30;93.50;;;;;;5032878;28;20041;-69
2022/11/19 11:33:31;;;;;;;3.83;1.35;;;11.40;93.20;;;;;;5032628;28;20045;-69
2022/11/19 11:36:19;;;;;;;3.45;1.50;;;11.40;92.90;;;;;;5032726;28;20037;-70
2022/11/19 11:38:48;;;;;;;4.38;1.33;;;11.40;92.30;;;;;;5033092;28;20041;-69
2022/11/19 11:41:41;;;;;;;2.03;1.33;;;11.50;92.40;;;;;;5034295;28;20059;-71
2022/11/19 11:44:18;;;;;;;2.72;1.08;;;11.40;92.40;;;;;;5032357;28;20399;-70
2022/11/19 11:46:46;;;;;;;1.58;1.17;;;11.50;92.20;;;;;;5036451;28;20034;-69
2022/11/19 11:49:32;;;;;;;2.13;1.20;;;11.50;92.10;;;;;;5036733;28;20041;-70
2022/11/19 11:52:14;;;;;;;1.10;0.75;;;11.40;91.60;;;;;;5036669;28;20038;-70
2022/11/19 11:54:56;;;;;;;3.25;0.90;;;11.40;91.40;;;;;;5036260;28;20109;-69
2022/11/19 11:57:27;;;;;;;1.20;0.82;;;11.40;91.30;;;;;;5036183;28;20033;-69
2022/11/19 11:59:53;;;;;;;1.80;1.10;;;11.40;91.10;;;;;;5036297;28;20029;-69
2022/11/19 12:02:21;;;;;;;1.50;1.20;;;11.40;91.00;;;;;;5035930;28;20036;-71
2022/11/19 12:04:48;;;;;;;2.85;1.30;;;11.40;90.80;;;;;;5035825;28;20084;-70
2022/11/19 12:07:54;;;;;;;1.90;1.30;;;11.40;90.60;;;;;;5036309;28;20030;-69
2022/11/19 12:10:28;;;;;;;2.33;1.33;;;11.40;90.30;;;;;;5036174;28;20071;-70
2022/11/19 12:13:05;;;;;;;2.00;1.33;;;11.40;90.20;;;;;;5036470;28;20104;-72
2022/11/19 12:15:44;;;;;;;2.80;1.33;;;11.30;90.30;;;;;;5035574;28;20103;-70
2022/11/19 12:18:25;;;;;;;2.30;1.10;;;11.30;90.10;;;;;;5035962;28;20105;-70
2022/11/19 12:20:56;;;;;;;2.33;1.52;;;11.40;89.70;;;;;;5036006;28;20095;-70
2022/11/19 12:23:28;;;;;;;1.90;1.25;;;11.40;89.40;;;;;;5035486;28;20458;-70
2022/11/19 12:26:26;;;;;;;3.13;1.10;;;11.30;89.20;;;;;;5035700;28;20034;-69
2022/11/19 12:28:57;;;;;;;1.63;1.00;;;11.30;89.30;;;;;;5035886;28;20072;-71
2022/11/19 12:31:38;;;;;;;1.13;0.80;;;11.30;88.10;;;;;;5033402;28;20128;-71
2022/11/19 12:34:34;;;;;;;1.48;1.30;;;11.30;88.00;;;;;;5031606;28;20107;-70
2022/11/19 12:37:24;;;;;;;2.13;1.35;;;11.30;88.40;;;;;;5034277;28;20064;-69
2022/11/19 12:39:58;;;;;;;3.40;0.90;;;11.30;89.00;;;;;;5035772;28;20443;-69
2022/11/19 12:42:51;;;;;;;1.20;1.00;;;11.30;89.40;;;;;;5035710;28;20099;-73
2022/11/19 12:45:35;;;;;;;2.58;0.90;;;11.30;89.50;;;;;;5030000;28;20060;-70
2022/11/19 12:48:29;;;;;;;1.10;0.90;;;11.30;89.40;;;;;;5035316;28;20069;-70
2022/11/19 12:51:17;;;;;;;1.15;0.93;;;11.30;89.30;;;;;;5034253;28;20037;-69
2022/11/19 12:53:58;;;;;;;1.23;0.82;;;11.30;89.10;;;;;;5035366;28;20037;-71
2022/11/19 12:56:43;;;;;;;1.13;0.90;;;11.30;88.90;;;;;;5035243;28;20061;-71
2022/11/19 12:59:40;;;;;;;3.38;1.00;;;11.30;88.70;;;;;;5034595;28;20190;-71
2022/11/19 13:02:23;;;;;;;1.33;0.90;;;11.30;88.50;;;;;;5035478;28;20426;-70
2022/11/19 13:04:51;;;;;;;;;;;11.30;88.50;;;;;;5035531;28;20045;-70
2022/11/19 13:07:33;;;;;;;2.50;1.50;;;11.30;88.70;;;;;;5034866;28;20327;-70
2022/11/19 13:10:13;;;;;;;2.43;1.63;;;11.30;88.90;;;;;;5034928;28;20076;-71
2022/11/19 13:12:44;;;;;;;1.80;1.45;;;11.20;88.90;;;;;;5035193;28;20057;-70
2022/11/19 13:15:49;;;;;;;1.92;1.20;;;11.30;88.90;;;;;;5034588;28;20057;-70
2022/11/19 13:18:17;;;;;;;2.15;1.30;;;11.20;88.50;;;;;;5033769;28;20036;-70
2022/11/19 13:21:18;;;;;;;2.45;1.30;;;11.20;88.90;;;;;;5034766;28;20112;-70
2022/11/19 13:23:46;;;;;;;2.38;1.10;;;11.20;88.60;;;;;;5021841;28;20034;-70
2022/11/19 13:26:18;;;;;;;1.63;0.90;;;11.20;88.90;;;;;;5034731;28;20030;-70
2022/11/19 13:28:50;;;;;;;1.73;1.08;;;11.20;88.90;;;;;;5034691;28;20025;-70
2022/11/19 13:31:39;;;;;;;2.55;1.00;;;11.20;88.80;;;;;;5034534;28;20042;-70
2022/11/19 13:34:30;;;;;;;3.65;1.10;;;11.20;88.80;;;;;;5033468;28;20361;-69
2022/11/19 13:37:13;;;;;;;1.63;1.10;;;11.30;88.60;;;;;;5034332;28;20116;-69